sensor_id;sensor_type;location;lat;lon;timestamp;P1;durP1;ratioP1;P2;durP2;ratioP2
4309;SDS011;2168;53.576;9.980;2023-06-10T00:01:20;0.60;;;0.60;;
4309;SDS011;2168;53.576;9.980;2023-06-10T00:03:47;0.50;;;0.50;;
4309;SDS011;2168;53.576;9.980;2023-06-10T00:06:12;0.60;;;0.60;;
4309;SDS011;2168;53.576;9.980;2023-06-10T00:08:38;0.60;;;0.60;;
4309;SDS011;2168;53.576;9.980;2023-06-10T00:11:04;0.60;;;0.60;;
4309;SDS011;2168;53.576;9.980;2023-06-10T00:13:30;0.50;;;0.50;;
4309;SDS011;2168;53.576;9.980;2023-06-10T00:15:55;0.53;;;0.53;;
4309;SDS011;2168;53.576;9.980;2023-06-10T00:18:20;0.53;;;0.53;;
4309;SDS011;2168;53.576;9.980;2023-06-10T00:20:47;0.40;;;0.40;;
4309;SDS011;2168;53.576;9.980;2023-06-10T00:23:13;0.47;;;0.47;;
4309;SDS011;2168;53.576;9.980;2023-06-10T00:25:39;0.50;;;0.50;;
4309;SDS011;2168;53.576;9.980;2023-06-10T00:28:04;0.50;;;0.50;;
4309;SDS011;2168;53.576;9.980;2023-06-10T00:30:30;0.40;;;0.40;;
4309;SDS011;2168;53.576;9.980;2023-06-10T00:32:55;0.50;;;0.50;;
4309;SDS011;2168;53.576;9.980;2023-06-10T00:35:20;0.60;;;0.60;;
4309;SDS011;2168;53.576;9.980;2023-06-10T00:37:45;0.50;;;0.50;;
4309;SDS011;2168;53.576;9.980;2023-06-10T00:40:11;0.60;;;0.60;;
4309;SDS011;2168;53.576;9.980;2023-06-10T00:42:36;0.50;;;0.50;;
4309;SDS011;2168;53.576;9.980;2023-06-10T00:45:01;0.57;;;0.57;;
4309;SDS011;2168;53.576;9.980;2023-06-10T00:47:27;0.50;;;0.50;;
4309;SDS011;2168;53.576;9.980;2023-06-10T00:49:53;0.50;;;0.50;;
4309;SDS011;2168;53.576;9.980;2023-06-10T00:52:18;0.50;;;0.50;;
4309;SDS011;2168;53.576;9.980;2023-06-10T00:54:47;0.70;;;0.70;;
4309;SDS011;2168;53.576;9.980;2023-06-10T00:57:12;0.60;;;0.60;;
4309;SDS011;2168;53.576;9.980;2023-06-10T00:59:39;0.60;;;0.60;;
4309;SDS011;2168;53.576;9.980;2023-06-10T01:02:04;0.50;;;0.50;;
4309;SDS011;2168;53.576;9.980;2023-06-10T01:04:29;0.50;;;0.50;;
4309;SDS011;2168;53.576;9.980;2023-06-10T01:12:05;0.30;;;0.30;;
4309;SDS011;2168;53.576;9.980;2023-06-10T01:14:39;0.40;;;0.40;;
4309;SDS011;2168;53.576;9.980;2023-06-10T01:17:10;0.50;;;0.50;;
4309;SDS011;2168;53.576;9.980;2023-06-10T01:19:35;0.50;;;0.50;;
4309;SDS011;2168;53.576;9.980;2023-06-10T01:22:01;0.50;;;0.50;;
4309;SDS011;2168;53.576;9.980;2023-06-10T01:24:27;0.50;;;0.50;;
4309;SDS011;2168;53.576;9.980;2023-06-10T01:26:52;0.43;;;0.43;;
4309;SDS011;2168;53.576;9.980;2023-06-10T01:29:20;0.60;;;0.60;;
4309;SDS011;2168;53.576;9.980;2023-06-10T01:31:49;0.50;;;0.50;;
4309;SDS011;2168;53.576;9.980;2023-06-10T01:34:17;0.50;;;0.50;;
4309;SDS011;2168;53.576;9.980;2023-06-10T01:36:44;0.50;;;0.50;;
4309;SDS011;2168;53.576;9.980;2023-06-10T01:39:11;0.60;;;0.60;;
4309;SDS011;2168;53.576;9.980;2023-06-10T01:41:36;0.40;;;0.40;;
4309;SDS011;2168;53.576;9.980;2023-06-10T01:44:02;0.50;;;0.50;;
4309;SDS011;2168;53.576;9.980;2023-06-10T01:46:27;0.40;;;0.40;;
4309;SDS011;2168;53.576;9.980;2023-06-10T01:48:53;0.50;;;0.50;;
4309;SDS011;2168;53.576;9.980;2023-06-10T01:51:18;0.50;;;0.50;;
4309;SDS011;2168;53.576;9.980;2023-06-10T01:53:43;0.50;;;0.50;;
4309;SDS011;2168;53.576;9.980;2023-06-10T01:56:08;0.60;;;0.60;;
4309;SDS011;2168;53.576;9.980;2023-06-10T01:58:33;0.50;;;0.50;;
4309;SDS011;2168;53.576;9.980;2023-06-10T02:00:58;0.50;;;0.50;;
4309;SDS011;2168;53.576;9.980;2023-06-10T02:03:24;0.50;;;0.50;;
4309;SDS011;2168;53.576;9.980;2023-06-10T02:05:49;0.60;;;0.60;;
4309;SDS011;2168;53.576;9.980;2023-06-10T02:08:14;0.50;;;0.50;;
4309;SDS011;2168;53.576;9.980;2023-06-10T02:10:39;0.60;;;0.60;;
4309;SDS011;2168;53.576;9.980;2023-06-10T02:13:05;0.40;;;0.40;;
4309;SDS011;2168;53.576;9.980;2023-06-10T02:15:30;0.50;;;0.50;;
4309;SDS011;2168;53.576;9.980;2023-06-10T02:17:56;0.40;;;0.40;;
4309;SDS011;2168;53.576;9.980;2023-06-10T02:20:21;0.50;;;0.50;;
4309;SDS011;2168;53.576;9.980;2023-06-10T02:22:46;0.40;;;0.40;;
4309;SDS011;2168;53.576;9.980;2023-06-10T02:25:12;0.50;;;0.50;;
4309;SDS011;2168;53.576;9.980;2023-06-10T02:27:37;0.50;;;0.50;;
4309;SDS011;2168;53.576;9.980;2023-06-10T02:30:02;0.47;;;0.47;;
4309;SDS011;2168;53.576;9.980;2023-06-10T02:32:27;0.50;;;0.50;;
4309;SDS011;2168;53.576;9.980;2023-06-10T02:34:53;0.43;;;0.43;;
4309;SDS011;2168;53.576;9.980;2023-06-10T02:37:18;0.50;;;0.50;;
4309;SDS011;2168;53.576;9.980;2023-06-10T02:39:43;0.50;;;0.50;;
4309;SDS011;2168;53.576;9.980;2023-06-10T02:42:08;0.50;;;0.50;;
4309;SDS011;2168;53.576;9.980;2023-06-10T02:44:33;0.50;;;0.50;;
4309;SDS011;2168;53.576;9.980;2023-06-10T02:46:59;0.50;;;0.50;;
4309;SDS011;2168;53.576;9.980;2023-06-10T02:49:24;0.50;;;0.50;;
4309;SDS011;2168;53.576;9.980;2023-06-10T02:51:52;0.50;;;0.50;;
4309;SDS011;2168;53.576;9.980;2023-06-10T02:54:19;0.50;;;0.50;;
4309;SDS011;2168;53.576;9.980;2023-06-10T02:56:44;0.60;;;0.60;;
4309;SDS011;2168;53.576;9.980;2023-06-10T02:59:10;0.60;;;0.60;;
4309;SDS011;2168;53.576;9.980;2023-06-10T03:01:36;0.60;;;0.60;;
4309;SDS011;2168;53.576;9.980;2023-06-10T03:04:03;0.40;;;0.40;;
4309;SDS011;2168;53.576;9.980;2023-06-10T03:06:28;0.60;;;0.60;;
4309;SDS011;2168;53.576;9.980;2023-06-10T03:08:54;0.53;;;0.53;;
4309;SDS011;2168;53.576;9.980;2023-06-10T03:11:19;0.50;;;0.50;;
4309;SDS011;2168;53.576;9.980;2023-06-10T03:13:45;0.50;;;0.50;;
4309;SDS011;2168;53.576;9.980;2023-06-10T03:16:10;0.50;;;0.50;;
4309;SDS011;2168;53.576;9.980;2023-06-10T03:18:37;0.50;;;0.50;;
4309;SDS011;2168;53.576;9.980;2023-06-10T03:21:02;0.60;;;0.60;;
4309;SDS011;2168;53.576;9.980;2023-06-10T03:23:28;0.47;;;0.47;;
4309;SDS011;2168;53.576;9.980;2023-06-10T03:25:54;0.40;;;0.40;;
4309;SDS011;2168;53.576;9.980;2023-06-10T03:28:19;0.50;;;0.50;;
4309;SDS011;2168;53.576;9.980;2023-06-10T03:30:45;0.60;;;0.60;;
4309;SDS011;2168;53.576;9.980;2023-06-10T03:33:11;0.50;;;0.50;;
4309;SDS011;2168;53.576;9.980;2023-06-10T03:35:36;0.50;;;0.50;;
4309;SDS011;2168;53.576;9.980;2023-06-10T03:38:01;0.50;;;0.50;;
4309;SDS011;2168;53.576;9.980;2023-06-10T03:40:26;0.40;;;0.40;;
4309;SDS011;2168;53.576;9.980;2023-06-10T03:42:52;0.50;;;0.50;;
4309;SDS011;2168;53.576;9.980;2023-06-10T03:45:17;0.47;;;0.47;;
4309;SDS011;2168;53.576;9.980;2023-06-10T03:47:42;0.40;;;0.40;;
4309;SDS011;2168;53.576;9.980;2023-06-10T03:50:08;0.40;;;0.40;;
4309;SDS011;2168;53.576;9.980;2023-06-10T03:52:33;0.50;;;0.50;;
4309;SDS011;2168;53.576;9.980;2023-06-10T03:54:59;0.50;;;0.50;;
4309;SDS011;2168;53.576;9.980;2023-06-10T03:57:24;0.50;;;0.50;;
4309;SDS011;2168;53.576;9.980;2023-06-10T03:59:49;0.47;;;0.47;;
4309;SDS011;2168;53.576;9.980;2023-06-10T04:02:15;0.40;;;0.40;;
4309;SDS011;2168;53.576;9.980;2023-06-10T04:04:41;0.50;;;0.50;;
4309;SDS011;2168;53.576;9.980;2023-06-10T04:07:06;0.50;;;0.50;;
4309;SDS011;2168;53.576;9.980;2023-06-10T04:09:33;0.50;;;0.50;;
4309;SDS011;2168;53.576;9.980;2023-06-10T04:11:58;0.50;;;0.50;;
4309;SDS011;2168;53.576;9.980;2023-06-10T04:14:23;0.50;;;0.50;;
4309;SDS011;2168;53.576;9.980;2023-06-10T04:16:49;0.40;;;0.40;;
4309;SDS011;2168;53.576;9.980;2023-06-10T04:19:15;0.40;;;0.40;;
4309;SDS011;2168;53.576;9.980;2023-06-10T04:21:41;0.40;;;0.40;;
4309;SDS011;2168;53.576;9.980;2023-06-10T04:24:06;0.50;;;0.50;;
4309;SDS011;2168;53.576;9.980;2023-06-10T04:26:32;0.50;;;0.50;;
4309;SDS011;2168;53.576;9.980;2023-06-10T04:28:57;0.40;;;0.40;;
4309;SDS011;2168;53.576;9.980;2023-06-10T04:31:22;0.40;;;0.40;;
4309;SDS011;2168;53.576;9.980;2023-06-10T04:33:48;0.40;;;0.40;;
4309;SDS011;2168;53.576;9.980;2023-06-10T04:36:13;0.50;;;0.50;;
4309;SDS011;2168;53.576;9.980;2023-06-10T04:38:39;0.40;;;0.40;;
4309;SDS011;2168;53.576;9.980;2023-06-10T04:41:05;0.40;;;0.40;;
4309;SDS011;2168;53.576;9.980;2023-06-10T04:43:30;0.30;;;0.30;;
4309;SDS011;2168;53.576;9.980;2023-06-10T04:45:56;0.50;;;0.50;;
4309;SDS011;2168;53.576;9.980;2023-06-10T04:48:21;0.40;;;0.40;;
4309;SDS011;2168;53.576;9.980;2023-06-10T04:50:46;0.37;;;0.37;;
4309;SDS011;2168;53.576;9.980;2023-06-10T04:53:11;0.50;;;0.50;;
4309;SDS011;2168;53.576;9.980;2023-06-10T04:55:37;0.50;;;0.50;;
4309;SDS011;2168;53.576;9.980;2023-06-10T04:58:02;0.43;;;0.43;;
4309;SDS011;2168;53.576;9.980;2023-06-10T05:00:27;0.50;;;0.50;;
4309;SDS011;2168;53.576;9.980;2023-06-10T05:02:52;0.50;;;0.50;;
4309;SDS011;2168;53.576;9.980;2023-06-10T05:05:18;0.50;;;0.50;;
4309;SDS011;2168;53.576;9.980;2023-06-10T05:07:43;0.53;;;0.53;;
4309;SDS011;2168;53.576;9.980;2023-06-10T05:10:08;0.40;;;0.40;;
4309;SDS011;2168;53.576;9.980;2023-06-10T05:12:33;0.50;;;0.50;;
4309;SDS011;2168;53.576;9.980;2023-06-10T05:14:59;0.60;;;0.60;;
4309;SDS011;2168;53.576;9.980;2023-06-10T05:17:24;0.50;;;0.50;;
4309;SDS011;2168;53.576;9.980;2023-06-10T05:19:50;0.40;;;0.40;;
4309;SDS011;2168;53.576;9.980;2023-06-10T05:22:15;0.50;;;0.50;;
4309;SDS011;2168;53.576;9.980;2023-06-10T05:24:41;0.43;;;0.43;;
4309;SDS011;2168;53.576;9.980;2023-06-10T05:27:06;0.50;;;0.50;;
4309;SDS011;2168;53.576;9.980;2023-06-10T05:29:31;0.40;;;0.40;;
4309;SDS011;2168;53.576;9.980;2023-06-10T05:31:56;0.40;;;0.40;;
4309;SDS011;2168;53.576;9.980;2023-06-10T05:34:25;0.50;;;0.50;;
4309;SDS011;2168;53.576;9.980;2023-06-10T05:36:50;0.60;;;0.60;;
4309;SDS011;2168;53.576;9.980;2023-06-10T05:39:15;0.50;;;0.50;;
4309;SDS011;2168;53.576;9.980;2023-06-10T05:41:40;0.70;;;0.70;;
4309;SDS011;2168;53.576;9.980;2023-06-10T05:44:06;0.60;;;0.60;;
4309;SDS011;2168;53.576;9.980;2023-06-10T05:46:31;0.50;;;0.50;;
4309;SDS011;2168;53.576;9.980;2023-06-10T05:48:56;0.60;;;0.60;;
4309;SDS011;2168;53.576;9.980;2023-06-10T05:51:21;0.50;;;0.50;;
4309;SDS011;2168;53.576;9.980;2023-06-10T05:53:46;0.60;;;0.60;;
4309;SDS011;2168;53.576;9.980;2023-06-10T05:56:12;0.47;;;0.47;;
4309;SDS011;2168;53.576;9.980;2023-06-10T05:58:38;0.60;;;0.60;;
4309;SDS011;2168;53.576;9.980;2023-06-10T06:01:03;0.60;;;0.60;;
4309;SDS011;2168;53.576;9.980;2023-06-10T06:03:28;0.60;;;0.60;;
4309;SDS011;2168;53.576;9.980;2023-06-10T06:05:53;0.60;;;0.60;;
4309;SDS011;2168;53.576;9.980;2023-06-10T06:08:18;0.70;;;0.70;;
4309;SDS011;2168;53.576;9.980;2023-06-10T06:10:44;0.60;;;0.60;;
4309;SDS011;2168;53.576;9.980;2023-06-10T06:13:09;0.50;;;0.50;;
4309;SDS011;2168;53.576;9.980;2023-06-10T06:15:34;0.60;;;0.60;;
4309;SDS011;2168;53.576;9.980;2023-06-10T06:18:00;0.60;;;0.60;;
4309;SDS011;2168;53.576;9.980;2023-06-10T06:20:25;0.60;;;0.60;;
4309;SDS011;2168;53.576;9.980;2023-06-10T06:22:50;0.70;;;0.70;;
4309;SDS011;2168;53.576;9.980;2023-06-10T06:25:15;0.70;;;0.70;;
4309;SDS011;2168;53.576;9.980;2023-06-10T06:27:40;0.73;;;0.73;;
4309;SDS011;2168;53.576;9.980;2023-06-10T06:30:06;0.60;;;0.60;;
4309;SDS011;2168;53.576;9.980;2023-06-10T06:32:31;0.57;;;0.57;;
4309;SDS011;2168;53.576;9.980;2023-06-10T06:34:57;0.57;;;0.57;;
4309;SDS011;2168;53.576;9.980;2023-06-10T06:37:22;0.50;;;0.50;;
4309;SDS011;2168;53.576;9.980;2023-06-10T06:39:49;0.70;;;0.70;;
4309;SDS011;2168;53.576;9.980;2023-06-10T06:42:14;0.63;;;0.63;;
4309;SDS011;2168;53.576;9.980;2023-06-10T06:44:40;0.60;;;0.60;;
4309;SDS011;2168;53.576;9.980;2023-06-10T06:47:05;0.60;;;0.60;;
4309;SDS011;2168;53.576;9.980;2023-06-10T06:49:30;0.70;;;0.70;;
4309;SDS011;2168;53.576;9.980;2023-06-10T06:51:55;0.70;;;0.70;;
4309;SDS011;2168;53.576;9.980;2023-06-10T06:54:20;0.80;;;0.80;;
4309;SDS011;2168;53.576;9.980;2023-06-10T06:56:45;0.77;;;0.77;;
4309;SDS011;2168;53.576;9.980;2023-06-10T06:59:11;0.73;;;0.73;;
4309;SDS011;2168;53.576;9.980;2023-06-10T07:01:38;0.70;;;0.70;;
4309;SDS011;2168;53.576;9.980;2023-06-10T07:04:04;0.77;;;0.77;;
4309;SDS011;2168;53.576;9.980;2023-06-10T07:06:29;0.70;;;0.70;;
4309;SDS011;2168;53.576;9.980;2023-06-10T07:08:54;0.70;;;0.70;;
4309;SDS011;2168;53.576;9.980;2023-06-10T07:11:19;0.70;;;0.70;;
4309;SDS011;2168;53.576;9.980;2023-06-10T07:13:45;0.70;;;0.70;;
4309;SDS011;2168;53.576;9.980;2023-06-10T07:16:10;0.70;;;0.70;;
4309;SDS011;2168;53.576;9.980;2023-06-10T07:18:35;0.80;;;0.80;;
4309;SDS011;2168;53.576;9.980;2023-06-10T07:21:00;0.70;;;0.70;;
4309;SDS011;2168;53.576;9.980;2023-06-10T07:23:25;0.90;;;0.90;;
4309;SDS011;2168;53.576;9.980;2023-06-10T07:25:51;0.70;;;0.70;;
4309;SDS011;2168;53.576;9.980;2023-06-10T07:28:16;0.80;;;0.80;;
4309;SDS011;2168;53.576;9.980;2023-06-10T07:30:41;0.80;;;0.80;;
4309;SDS011;2168;53.576;9.980;2023-06-10T07:33:06;0.80;;;0.80;;
4309;SDS011;2168;53.576;9.980;2023-06-10T07:35:32;0.80;;;0.80;;
4309;SDS011;2168;53.576;9.980;2023-06-10T07:37:58;0.90;;;0.90;;
4309;SDS011;2168;53.576;9.980;2023-06-10T07:40:23;1.00;;;1.00;;
4309;SDS011;2168;53.576;9.980;2023-06-10T07:42:48;0.80;;;0.80;;
4309;SDS011;2168;53.576;9.980;2023-06-10T07:45:14;0.80;;;0.80;;
4309;SDS011;2168;53.576;9.980;2023-06-10T07:47:39;0.90;;;0.90;;
4309;SDS011;2168;53.576;9.980;2023-06-10T07:50:04;0.90;;;0.90;;
4309;SDS011;2168;53.576;9.980;2023-06-10T07:52:29;0.83;;;0.83;;
4309;SDS011;2168;53.576;9.980;2023-06-10T07:54:56;1.10;;;1.10;;
4309;SDS011;2168;53.576;9.980;2023-06-10T07:57:21;0.90;;;0.90;;
4309;SDS011;2168;53.576;9.980;2023-06-10T07:59:46;0.93;;;0.93;;
4309;SDS011;2168;53.576;9.980;2023-06-10T08:02:11;0.90;;;0.90;;
4309;SDS011;2168;53.576;9.980;2023-06-10T08:04:36;1.00;;;1.00;;
4309;SDS011;2168;53.576;9.980;2023-06-10T08:07:02;0.90;;;0.90;;
4309;SDS011;2168;53.576;9.980;2023-06-10T08:09:27;1.00;;;1.00;;
4309;SDS011;2168;53.576;9.980;2023-06-10T08:11:52;1.00;;;1.00;;
4309;SDS011;2168;53.576;9.980;2023-06-10T08:14:18;0.90;;;0.90;;
4309;SDS011;2168;53.576;9.980;2023-06-10T08:16:43;1.10;;;1.10;;
4309;SDS011;2168;53.576;9.980;2023-06-10T08:19:08;1.10;;;1.10;;
4309;SDS011;2168;53.576;9.980;2023-06-10T08:21:34;1.33;;;1.33;;
4309;SDS011;2168;53.576;9.980;2023-06-10T08:23:59;1.10;;;1.10;;
4309;SDS011;2168;53.576;9.980;2023-06-10T08:26:24;1.27;;;1.27;;
4309;SDS011;2168;53.576;9.980;2023-06-10T08:28:50;1.07;;;1.07;;
4309;SDS011;2168;53.576;9.980;2023-06-10T08:31:15;1.07;;;1.07;;
4309;SDS011;2168;53.576;9.980;2023-06-10T08:33:41;1.10;;;1.10;;
4309;SDS011;2168;53.576;9.980;2023-06-10T08:36:06;1.20;;;1.20;;
4309;SDS011;2168;53.576;9.980;2023-06-10T08:38:31;1.10;;;1.10;;
4309;SDS011;2168;53.576;9.980;2023-06-10T08:40:58;1.20;;;1.20;;
4309;SDS011;2168;53.576;9.980;2023-06-10T08:46:00;1.13;;;1.13;;
4309;SDS011;2168;53.576;9.980;2023-06-10T08:48:26;1.20;;;1.20;;
4309;SDS011;2168;53.576;9.980;2023-06-10T08:50:53;1.17;;;1.17;;
4309;SDS011;2168;53.576;9.980;2023-06-10T08:53:19;1.10;;;1.10;;
4309;SDS011;2168;53.576;9.980;2023-06-10T08:55:46;1.10;;;1.10;;
4309;SDS011;2168;53.576;9.980;2023-06-10T08:58:14;1.20;;;1.20;;
4309;SDS011;2168;53.576;9.980;2023-06-10T09:00:39;1.00;;;1.00;;
4309;SDS011;2168;53.576;9.980;2023-06-10T09:03:04;1.10;;;1.10;;
4309;SDS011;2168;53.576;9.980;2023-06-10T09:05:31;1.30;;;1.30;;
4309;SDS011;2168;53.576;9.980;2023-06-10T09:07:58;1.27;;;1.27;;
4309;SDS011;2168;53.576;9.980;2023-06-10T09:10:23;1.20;;;1.20;;
4309;SDS011;2168;53.576;9.980;2023-06-10T09:12:50;1.40;;;1.40;;
4309;SDS011;2168;53.576;9.980;2023-06-10T09:15:15;1.40;;;1.40;;
4309;SDS011;2168;53.576;9.980;2023-06-10T09:17:42;1.30;;;1.30;;
4309;SDS011;2168;53.576;9.980;2023-06-10T09:20:07;1.27;;;1.27;;
4309;SDS011;2168;53.576;9.980;2023-06-10T09:22:33;1.40;;;1.40;;
4309;SDS011;2168;53.576;9.980;2023-06-10T09:25:02;1.37;;;1.37;;
4309;SDS011;2168;53.576;9.980;2023-06-10T09:27:29;1.30;;;1.30;;
4309;SDS011;2168;53.576;9.980;2023-06-10T09:29:55;1.50;;;1.50;;
4309;SDS011;2168;53.576;9.980;2023-06-10T09:32:20;1.40;;;1.40;;
4309;SDS011;2168;53.576;9.980;2023-06-10T09:34:46;1.60;;;1.60;;
4309;SDS011;2168;53.576;9.980;2023-06-10T09:37:12;1.50;;;1.50;;
4309;SDS011;2168;53.576;9.980;2023-06-10T09:39:39;1.30;;;1.30;;
4309;SDS011;2168;53.576;9.980;2023-06-10T09:42:25;1.50;;;1.50;;
4309;SDS011;2168;53.576;9.980;2023-06-10T09:44:50;1.47;;;1.47;;
4309;SDS011;2168;53.576;9.980;2023-06-10T09:47:20;1.37;;;1.37;;
4309;SDS011;2168;53.576;9.980;2023-06-10T09:49:47;1.60;;;1.60;;
4309;SDS011;2168;53.576;9.980;2023-06-10T09:52:12;1.57;;;1.57;;
4309;SDS011;2168;53.576;9.980;2023-06-10T09:54:37;1.70;;;1.70;;
4309;SDS011;2168;53.576;9.980;2023-06-10T09:57:06;1.80;;;1.80;;
4309;SDS011;2168;53.576;9.980;2023-06-10T09:59:32;1.80;;;1.80;;
4309;SDS011;2168;53.576;9.980;2023-06-10T10:01:59;1.70;;;1.70;;
4309;SDS011;2168;53.576;9.980;2023-06-10T10:04:25;1.67;;;1.67;;
4309;SDS011;2168;53.576;9.980;2023-06-10T10:06:51;2.17;;;2.17;;
4309;SDS011;2168;53.576;9.980;2023-06-10T10:09:17;1.70;;;1.70;;
4309;SDS011;2168;53.576;9.980;2023-06-10T10:11:42;1.80;;;1.80;;
4309;SDS011;2168;53.576;9.980;2023-06-10T10:14:08;1.90;;;1.90;;
4309;SDS011;2168;53.576;9.980;2023-06-10T10:16:35;1.93;;;1.93;;
4309;SDS011;2168;53.576;9.980;2023-06-10T10:19:16;1.90;;;1.90;;
4309;SDS011;2168;53.576;9.980;2023-06-10T10:21:44;1.77;;;1.77;;
4309;SDS011;2168;53.576;9.980;2023-06-10T10:26:39;2.00;;;2.00;;
4309;SDS011;2168;53.576;9.980;2023-06-10T10:29:14;1.67;;;1.67;;
4309;SDS011;2168;53.576;9.980;2023-06-10T10:31:42;1.90;;;1.90;;
4309;SDS011;2168;53.576;9.980;2023-06-10T10:34:09;1.50;;;1.50;;
4309;SDS011;2168;53.576;9.980;2023-06-10T10:36:37;1.90;;;1.90;;
4309;SDS011;2168;53.576;9.980;2023-06-10T10:39:02;1.63;;;1.63;;
4309;SDS011;2168;53.576;9.980;2023-06-10T10:41:28;1.87;;;1.87;;
4309;SDS011;2168;53.576;9.980;2023-06-10T10:43:55;1.93;;;1.93;;
4309;SDS011;2168;53.576;9.980;2023-06-10T10:46:20;1.90;;;1.90;;
4309;SDS011;2168;53.576;9.980;2023-06-10T10:48:46;1.80;;;1.80;;
4309;SDS011;2168;53.576;9.980;2023-06-10T10:51:16;1.80;;;1.80;;
4309;SDS011;2168;53.576;9.980;2023-06-10T10:53:42;1.93;;;1.93;;
4309;SDS011;2168;53.576;9.980;2023-06-10T10:56:12;2.20;;;2.20;;
4309;SDS011;2168;53.576;9.980;2023-06-10T10:58:38;1.80;;;1.80;;
4309;SDS011;2168;53.576;9.980;2023-06-10T11:01:13;1.90;;;1.90;;
4309;SDS011;2168;53.576;9.980;2023-06-10T11:03:43;1.97;;;1.97;;
4309;SDS011;2168;53.576;9.980;2023-06-10T11:06:13;1.97;;;1.97;;
4309;SDS011;2168;53.576;9.980;2023-06-10T11:11:17;1.67;;;1.67;;
4309;SDS011;2168;53.576;9.980;2023-06-10T11:13:42;2.13;;;2.13;;
4309;SDS011;2168;53.576;9.980;2023-06-10T11:16:22;2.07;;;2.07;;
4309;SDS011;2168;53.576;9.980;2023-06-10T11:18:53;2.00;;;2.00;;
4309;SDS011;2168;53.576;9.980;2023-06-10T11:21:18;2.00;;;2.00;;
4309;SDS011;2168;53.576;9.980;2023-06-10T11:23:43;2.20;;;2.20;;
4309;SDS011;2168;53.576;9.980;2023-06-10T11:26:29;2.20;;;2.20;;
4309;SDS011;2168;53.576;9.980;2023-06-10T11:31:23;2.20;;;2.20;;
4309;SDS011;2168;53.576;9.980;2023-06-10T11:34:04;2.03;;;2.03;;
4309;SDS011;2168;53.576;9.980;2023-06-10T11:36:30;2.20;;;2.20;;
4309;SDS011;2168;53.576;9.980;2023-06-10T11:38:56;2.07;;;2.07;;
4309;SDS011;2168;53.576;9.980;2023-06-10T11:41:23;2.07;;;2.07;;
4309;SDS011;2168;53.576;9.980;2023-06-10T11:43:48;2.00;;;2.00;;
4309;SDS011;2168;53.576;9.980;2023-06-10T11:46:14;2.00;;;2.00;;
4309;SDS011;2168;53.576;9.980;2023-06-10T11:48:39;2.10;;;2.10;;
4309;SDS011;2168;53.576;9.980;2023-06-10T11:51:05;2.43;;;2.43;;
4309;SDS011;2168;53.576;9.980;2023-06-10T11:53:31;2.30;;;2.30;;
4309;SDS011;2168;53.576;9.980;2023-06-10T11:55:56;2.30;;;2.30;;
4309;SDS011;2168;53.576;9.980;2023-06-10T11:58:21;2.00;;;2.00;;
4309;SDS011;2168;53.576;9.980;2023-06-10T12:00:47;2.00;;;2.00;;
4309;SDS011;2168;53.576;9.980;2023-06-10T12:03:12;2.30;;;2.30;;
4309;SDS011;2168;53.576;9.980;2023-06-10T12:05:38;2.30;;;2.30;;
4309;SDS011;2168;53.576;9.980;2023-06-10T12:08:09;2.07;;;2.07;;
4309;SDS011;2168;53.576;9.980;2023-06-10T12:10:39;2.43;;;2.43;;
4309;SDS011;2168;53.576;9.980;2023-06-10T12:13:05;2.57;;;2.57;;
4309;SDS011;2168;53.576;9.980;2023-06-10T12:15:30;2.40;;;2.40;;
4309;SDS011;2168;53.576;9.980;2023-06-10T12:17:55;2.80;;;2.80;;
4309;SDS011;2168;53.576;9.980;2023-06-10T12:20:30;2.73;;;2.73;;
4309;SDS011;2168;53.576;9.980;2023-06-10T12:22:57;2.90;;;2.90;;
4309;SDS011;2168;53.576;9.980;2023-06-10T12:25:26;3.00;;;3.00;;
4309;SDS011;2168;53.576;9.980;2023-06-10T12:27:52;2.50;;;2.50;;
4309;SDS011;2168;53.576;9.980;2023-06-10T12:30:21;2.83;;;2.83;;
4309;SDS011;2168;53.576;9.980;2023-06-10T12:32:47;2.70;;;2.70;;
4309;SDS011;2168;53.576;9.980;2023-06-10T12:35:13;2.70;;;2.70;;
4309;SDS011;2168;53.576;9.980;2023-06-10T12:37:41;2.63;;;2.63;;
4309;SDS011;2168;53.576;9.980;2023-06-10T12:40:06;2.80;;;2.80;;
4309;SDS011;2168;53.576;9.980;2023-06-10T12:42:33;2.80;;;2.80;;
4309;SDS011;2168;53.576;9.980;2023-06-10T12:45:01;2.80;;;2.80;;
4309;SDS011;2168;53.576;9.980;2023-06-10T12:47:33;2.57;;;2.57;;
4309;SDS011;2168;53.576;9.980;2023-06-10T12:50:00;2.87;;;2.87;;
4309;SDS011;2168;53.576;9.980;2023-06-10T12:52:25;2.70;;;2.70;;
4309;SDS011;2168;53.576;9.980;2023-06-10T12:54:51;2.37;;;2.37;;
4309;SDS011;2168;53.576;9.980;2023-06-10T12:57:17;2.50;;;2.50;;
4309;SDS011;2168;53.576;9.980;2023-06-10T12:59:42;2.50;;;2.50;;
4309;SDS011;2168;53.576;9.980;2023-06-10T13:02:14;2.70;;;2.70;;
4309;SDS011;2168;53.576;9.980;2023-06-10T13:04:40;2.50;;;2.50;;
4309;SDS011;2168;53.576;9.980;2023-06-10T13:07:05;2.57;;;2.57;;
4309;SDS011;2168;53.576;9.980;2023-06-10T13:09:31;2.90;;;2.90;;
4309;SDS011;2168;53.576;9.980;2023-06-10T13:11:56;2.93;;;2.93;;
4309;SDS011;2168;53.576;9.980;2023-06-10T13:14:21;2.70;;;2.70;;
4309;SDS011;2168;53.576;9.980;2023-06-10T13:16:47;3.07;;;3.07;;
4309;SDS011;2168;53.576;9.980;2023-06-10T13:19:12;3.17;;;3.17;;
4309;SDS011;2168;53.576;9.980;2023-06-10T13:21:37;2.83;;;2.83;;
4309;SDS011;2168;53.576;9.980;2023-06-10T13:24:03;2.87;;;2.87;;
4309;SDS011;2168;53.576;9.980;2023-06-10T13:26:28;3.23;;;3.23;;
4309;SDS011;2168;53.576;9.980;2023-06-10T13:28:54;3.20;;;3.20;;
4309;SDS011;2168;53.576;9.980;2023-06-10T13:31:19;3.13;;;3.13;;
4309;SDS011;2168;53.576;9.980;2023-06-10T13:33:45;2.97;;;2.97;;
4309;SDS011;2168;53.576;9.980;2023-06-10T13:36:11;3.07;;;3.07;;
4309;SDS011;2168;53.576;9.980;2023-06-10T13:38:37;3.07;;;3.07;;
4309;SDS011;2168;53.576;9.980;2023-06-10T13:41:02;3.20;;;3.20;;
4309;SDS011;2168;53.576;9.980;2023-06-10T13:43:27;3.00;;;3.00;;
4309;SDS011;2168;53.576;9.980;2023-06-10T13:45:53;3.00;;;3.00;;
4309;SDS011;2168;53.576;9.980;2023-06-10T13:48:19;3.10;;;3.10;;
4309;SDS011;2168;53.576;9.980;2023-06-10T13:50:45;3.07;;;3.07;;
4309;SDS011;2168;53.576;9.980;2023-06-10T13:53:10;3.13;;;3.13;;
4309;SDS011;2168;53.576;9.980;2023-06-10T13:55:36;3.27;;;3.27;;
4309;SDS011;2168;53.576;9.980;2023-06-10T13:58:01;2.80;;;2.80;;
4309;SDS011;2168;53.576;9.980;2023-06-10T14:00:26;3.10;;;3.10;;
4309;SDS011;2168;53.576;9.980;2023-06-10T14:02:52;2.80;;;2.80;;
4309;SDS011;2168;53.576;9.980;2023-06-10T14:05:17;2.90;;;2.90;;
4309;SDS011;2168;53.576;9.980;2023-06-10T14:07:42;2.83;;;2.83;;
4309;SDS011;2168;53.576;9.980;2023-06-10T14:10:07;2.60;;;2.60;;
4309;SDS011;2168;53.576;9.980;2023-06-10T14:12:34;2.83;;;2.83;;
4309;SDS011;2168;53.576;9.980;2023-06-10T14:14:59;3.27;;;3.27;;
4309;SDS011;2168;53.576;9.980;2023-06-10T14:17:25;2.97;;;2.97;;
4309;SDS011;2168;53.576;9.980;2023-06-10T14:19:50;2.93;;;2.93;;
4309;SDS011;2168;53.576;9.980;2023-06-10T14:22:15;3.40;;;3.40;;
4309;SDS011;2168;53.576;9.980;2023-06-10T14:24:40;3.33;;;3.33;;
4309;SDS011;2168;53.576;9.980;2023-06-10T14:27:05;2.90;;;2.90;;
4309;SDS011;2168;53.576;9.980;2023-06-10T14:29:31;2.90;;;2.90;;
4309;SDS011;2168;53.576;9.980;2023-06-10T14:31:58;3.00;;;3.00;;
4309;SDS011;2168;53.576;9.980;2023-06-10T14:34:23;3.20;;;3.20;;
4309;SDS011;2168;53.576;9.980;2023-06-10T14:36:53;2.93;;;2.93;;
4309;SDS011;2168;53.576;9.980;2023-06-10T14:39:18;3.00;;;3.00;;
4309;SDS011;2168;53.576;9.980;2023-06-10T14:41:43;2.80;;;2.80;;
4309;SDS011;2168;53.576;9.980;2023-06-10T14:44:08;3.10;;;3.10;;
4309;SDS011;2168;53.576;9.980;2023-06-10T14:46:34;3.10;;;3.10;;
4309;SDS011;2168;53.576;9.980;2023-06-10T14:48:59;3.30;;;3.30;;
4309;SDS011;2168;53.576;9.980;2023-06-10T14:51:24;3.17;;;3.17;;
4309;SDS011;2168;53.576;9.980;2023-06-10T14:53:49;3.00;;;3.00;;
4309;SDS011;2168;53.576;9.980;2023-06-10T14:56:15;3.37;;;3.37;;
4309;SDS011;2168;53.576;9.980;2023-06-10T14:58:40;2.85;;;2.85;;
4309;SDS011;2168;53.576;9.980;2023-06-10T15:01:05;3.03;;;3.03;;
4309;SDS011;2168;53.576;9.980;2023-06-10T15:03:31;3.10;;;3.10;;
4309;SDS011;2168;53.576;9.980;2023-06-10T15:05:56;3.00;;;3.00;;
4309;SDS011;2168;53.576;9.980;2023-06-10T15:08:21;3.20;;;3.20;;
4309;SDS011;2168;53.576;9.980;2023-06-10T15:10:47;3.00;;;3.00;;
4309;SDS011;2168;53.576;9.980;2023-06-10T15:13:13;3.10;;;3.10;;
4309;SDS011;2168;53.576;9.980;2023-06-10T15:15:38;2.80;;;2.80;;
4309;SDS011;2168;53.576;9.980;2023-06-10T15:18:03;3.30;;;3.30;;
4309;SDS011;2168;53.576;9.980;2023-06-10T15:20:28;2.93;;;2.93;;
4309;SDS011;2168;53.576;9.980;2023-06-10T15:22:54;2.70;;;2.70;;